Time;durP1;ratioP1;P1;durP2;ratioP2;P2;SDS_P1;SDS_P2;PMS_P1;PMS_P2;Temp;Humidity;BMP_temperature;BMP_pressure;BME280_temperature;BME280_humidity;BME280_pressure;Samples;Min_cycle;Max_cycle;Signal;HPM_P1;HPM_P2
2021/07/27 00:00:14;;;;;;;12.85;7.45;;;;;;;18.30;74.95;99614.88;4979257;28;20406;-65
2021/07/27 00:03:02;;;;;;;13.70;8.00;;;;;;;18.29;75.06;99618.44;4993347;28;20120;-65
2021/07/27 00:05:47;;;;;;;20.35;10.23;;;;;;;18.30;75.09;99614.88;4993608;28;20422;-65
2021/07/27 00:08:31;;;;;;;;;;;;;;;18.28;74.84;99608.84;4979648;28;20051;-66
2021/07/27 00:11:15;;;;;;;11.90;9.57;;;;;;;18.25;74.73;99608.00;4993886;28;20346;-65
2021/07/27 00:13:59;;;;;;;14.85;8.65;;;;;;;18.25;74.93;99604.50;4978612;28;20048;-65
2021/07/27 00:16:43;;;;;;;16.15;9.65;;;;;;;18.26;74.88;99609.72;4993446;28;20056;-66
2021/07/27 00:19:27;;;;;;;16.98;9.52;;;;;;;18.23;74.84;99601.94;4993057;28;20045;-64
2021/07/27 00:22:11;;;;;;;18.90;9.88;;;;;;;18.24;74.98;99605.41;4994486;28;20045;-65
2021/07/27 00:24:57;;;;;;;12.57;10.25;;;;;;;18.23;74.80;99601.94;4996647;28;20093;-65
2021/07/27 00:27:43;;;;;;;17.40;9.23;;;;;;;18.24;74.98;99613.25;4996510;28;20257;-66
2021/07/27 00:30:27;;;;;;;15.00;9.13;;;;;;;18.24;74.90;99605.41;4982449;28;20517;-66
2021/07/27 00:33:11;;;;;;;22.05;10.75;;;;;;;18.22;74.82;99591.44;4982244;28;20418;-65
2021/07/27 00:35:55;;;;;;;17.98;10.60;;;;;;;18.22;74.91;99594.94;4996454;28;20049;-65
2021/07/27 00:38:39;;;;;;;17.00;9.90;;;;;;;18.23;74.98;99593.19;4996890;28;20389;-65
2021/07/27 00:41:23;;;;;;;15.55;10.68;;;;;;;18.23;74.97;99585.31;4996576;28;20474;-66
2021/07/27 00:44:07;;;;;;;19.45;10.23;;;;;;;18.21;75.24;99590.59;4981959;28;20045;-65
2021/07/27 00:46:51;;;;;;;16.50;10.23;;;;;;;18.23;75.06;99587.94;4996372;28;20045;-65
2021/07/27 00:49:35;;;;;;;21.15;11.40;;;;;;;18.21;74.95;99582.75;4996463;28;20430;-65
2021/07/27 00:52:19;;;;;;;17.40;10.70;;;;;;;18.21;75.09;99589.75;4996146;28;20577;-65
2021/07/27 00:55:04;;;;;;;14.77;10.57;;;;;;;18.21;74.76;99585.34;4996443;28;20505;-65
2021/07/27 00:57:49;;;;;;;16.63;10.60;;;;;;;18.21;74.83;99581.88;4981831;28;20133;-65
2021/07/27 01:00:33;;;;;;;;;;;;;;;18.17;74.82;99581.06;4996881;28;20048;-66
2021/07/27 01:03:17;;;;;;;17.13;10.98;;;;;;;18.17;74.84;99574.97;4996421;28;20040;-65
2021/07/27 01:06:00;;;;;;;19.65;11.60;;;;;;;18.17;74.73;99580.22;4996268;28;20046;-66
2021/07/27 01:08:45;;;;;;;16.23;11.50;;;;;;;18.16;74.74;99574.09;4996035;28;20048;-65
2021/07/27 01:11:29;;;;;;;16.92;10.95;;;;;;;18.16;74.83;99578.50;4996293;28;20080;-65
2021/07/27 01:14:13;;;;;;;21.17;11.98;;;;;;;18.15;74.77;99567.13;4996149;28;20104;-65
2021/07/27 01:16:57;;;;;;;13.95;11.43;;;;;;;18.16;74.58;99570.63;4996154;28;20053;-65
2021/07/27 01:43:57;;;;;;;21.95;12.73;;;;;;;18.08;74.75;99552.44;4995387;28;20073;-65
2021/07/27 01:46:41;;;;;;;27.85;13.73;;;;;;;18.08;74.85;99547.22;4995207;28;20069;-64
2021/07/27 01:49:25;;;;;;;20.42;11.50;;;;;;;18.08;74.86;99544.59;4994958;28;20085;-65
2021/07/27 01:52:11;;;;;;;19.67;11.77;;;;;;;18.07;74.92;99548.94;4980648;28;20580;-65
2021/07/27 01:54:56;;;;;;;17.10;12.45;;;;;;;18.06;74.79;99539.34;4980777;28;20097;-65
2021/07/27 01:57:40;;;;;;;17.00;11.07;;;;;;;18.06;75.06;99538.50;4980756;28;20512;-65
2021/07/27 02:00:25;;;;;;;14.65;11.65;;;;;;;18.04;75.03;99546.41;4980917;28;20583;-65
2021/07/27 02:03:09;;;;;;;19.98;11.82;;;;;;;18.03;74.95;99542.06;4980098;28;20205;-65
2021/07/27 02:05:54;;;;;;;20.25;12.30;;;;;;;18.04;74.76;99554.28;4980356;28;20473;-65
2021/07/27 02:08:37;;;;;;;20.20;12.38;;;;;;;18.03;74.91;99546.44;4995419;28;20410;-65
2021/07/27 02:11:26;;;;;;;16.52;11.40;;;;;;;18.02;75.00;99542.09;4995112;28;20081;-65
2021/07/27 02:14:13;;;;;;;15.25;10.52;;;;;;;18.01;74.96;99538.63;4994474;28;20089;-65
2021/07/27 02:16:57;;;;;;;14.02;11.07;;;;;;;18.01;75.00;99540.38;4980741;28;20053;-65
2021/07/27 02:19:41;;;;;;;16.15;11.10;;;;;;;17.99;74.83;99537.78;4994969;28;20041;-64
2021/07/27 02:22:25;;;;;;;18.52;11.93;;;;;;;18.00;74.97;99530.78;4995023;28;20398;-65
2021/07/27 02:25:10;;;;;;;14.50;11.40;;;;;;;17.99;74.91;99532.53;4995284;28;20197;-64
2021/07/27 02:27:53;;;;;;;16.58;11.48;;;;;;;17.99;74.70;99536.91;4994292;28;20242;-65
2021/07/27 02:30:41;;;;;;;15.07;10.98;;;;;;;17.97;74.79;99536.91;4994971;28;20092;-65
2021/07/27 02:33:26;;;;;;;15.60;11.32;;;;;;;17.98;74.55;99538.69;4994709;28;20081;-64
2021/07/27 02:36:10;;;;;;;19.73;11.45;;;;;;;17.97;75.03;99542.16;4994430;28;20040;-65
2021/07/27 02:38:54;;;;;;;19.95;11.60;;;;;;;17.95;75.05;99542.22;4994731;28;20088;-66
2021/07/27 02:41:38;;;;;;;;;;;;;;;17.94;74.85;99539.59;4993800;28;20532;-65
2021/07/27 02:44:22;;;;;;;15.93;11.13;;;;;;;17.94;74.85;99531.75;4994426;28;19920;-65
2021/07/27 02:47:06;;;;;;;26.10;12.93;;;;;;;17.92;74.82;99529.16;4994484;28;20690;-65
2021/07/27 02:49:51;;;;;;;20.58;12.10;;;;;;;17.93;74.67;99538.75;4994709;28;20509;-64
2021/07/27 02:52:36;;;;;;;19.35;12.65;;;;;;;17.92;74.75;99533.53;4979734;28;20101;-64
2021/07/27 02:55:20;;;;;;;20.75;11.75;;;;;;;17.92;74.88;99529.16;4994044;28;20124;-64
2021/07/27 02:58:10;;;;;;;22.23;12.30;;;;;;;17.91;74.99;99530.06;4994207;28;20049;-64
2021/07/27 03:00:54;;;;;;;21.45;12.43;;;;;;;17.92;74.86;99531.78;4994263;28;20053;-66
2021/07/27 03:03:38;;;;;;;18.02;12.07;;;;;;;17.92;74.76;99536.16;4994662;28;20177;-65
2021/07/27 03:06:22;;;;;;;17.15;10.80;;;;;;;17.92;74.89;99536.16;4994539;28;20053;-65
2021/07/27 03:09:16;;;;;;;18.73;11.77;;;;;;;17.93;74.72;99532.63;4979814;28;20512;-65
2021/07/27 03:12:04;;;;;;;22.10;11.57;;;;;;;17.93;75.07;99530.00;4979337;28;20045;-65
2021/07/27 03:14:48;;;;;;;17.65;11.63;;;;;;;17.92;74.68;99529.16;4979131;28;20524;-64
2021/07/27 03:17:31;;;;;;;24.55;11.80;;;;;;;17.93;74.61;99525.66;4994328;28;20045;-65
2021/07/27 03:20:16;;;;;;;14.43;11.88;;;;;;;17.92;74.92;99534.41;4994022;28;20049;-64
2021/07/27 03:23:00;;;;;;;19.85;11.48;;;;;;;17.93;74.87;99541.38;4993962;28;20093;-65
2021/07/27 03:25:44;;;;;;;16.50;12.15;;;;;;;17.92;74.97;99529.16;4994707;28;20134;-65
2021/07/27 03:28:28;;;;;;;22.45;12.38;;;;;;;17.91;75.03;99530.06;4993755;28;20149;-64
2021/07/27 03:31:13;;;;;;;17.88;11.05;;;;;;;17.92;74.81;99523.94;4993589;28;20084;-64
2021/07/27 03:33:56;;;;;;;;;;;;;;;17.90;74.79;99522.25;4994592;28;20058;-64
2021/07/27 03:36:47;;;;;;;16.50;11.77;;;;;;;17.89;75.04;99526.59;4993862;28;19924;-65
2021/07/27 03:39:30;;;;;;;17.08;11.00;;;;;;;17.91;74.94;99523.94;4994095;28;20581;-65
2021/07/27 03:42:14;;;;;;;15.20;11.27;;;;;;;17.90;74.88;99523.09;4979434;28;20045;-65
2021/07/27 03:45:00;;;;;;;16.88;11.57;;;;;;;17.90;74.92;99517.00;4993831;28;20053;-65
2021/07/27 03:47:44;;;;;;;19.95;11.60;;;;;;;17.89;75.31;99512.66;4979201;28;20041;-65
2021/07/27 03:50:28;;;;;;;21.10;11.85;;;;;;;17.90;75.17;99511.75;4994111;28;20169;-65
2021/07/27 03:53:18;;;;;;;15.45;10.80;;;;;;;17.89;74.88;99508.25;4993873;28;20257;-65
2021/07/27 03:56:02;;;;;;;16.50;11.65;;;;;;;17.89;75.02;99508.25;4978946;28;20109;-66
2021/07/27 03:58:46;;;;;;;13.48;10.13;;;;;;;17.88;75.24;99503.06;4982517;28;20057;-65
2021/07/27 04:01:29;;;;;;;19.40;11.10;;;;;;;17.87;74.96;99499.56;4997249;28;20049;-65
2021/07/27 04:04:15;;;;;;;14.77;11.27;;;;;;;17.87;74.96;99510.06;4997363;28;20046;-65
2021/07/27 04:06:59;;;;;;;14.27;10.60;;;;;;;17.88;74.86;99513.56;4997358;28;20048;-64
2021/07/27 04:09:43;;;;;;;14.35;10.75;;;;;;;17.87;74.94;99502.19;4997406;28;20641;-64
2021/07/27 04:12:27;;;;;;;14.02;11.38;;;;;;;17.85;75.11;99506.59;4997227;28;20049;-64
2021/07/27 04:15:11;;;;;;;15.75;10.88;;;;;;;17.87;75.15;99509.22;4996954;28;20101;-65
2021/07/27 04:17:54;;;;;;;14.38;10.63;;;;;;;17.85;75.04;99514.47;4997400;28;20134;-65
2021/07/27 04:20:38;;;;;;;13.82;10.77;;;;;;;17.87;74.96;99517.06;4997206;28;20053;-65
2021/07/27 04:23:22;;;;;;;11.70;10.00;;;;;;;17.86;74.93;99517.97;4996777;28;20089;-65
2021/07/27 04:26:06;;;;;;;;;;;;;;;17.83;74.94;99510.16;4997724;28;20080;-65
2021/07/27 04:28:51;;;;;;;13.50;9.93;;;;;;;17.81;74.86;99512.81;4981939;28;19921;-65
2021/07/27 04:31:34;;;;;;;19.10;10.23;;;;;;;17.82;75.07;99509.31;4997281;28;20050;-64
2021/07/27 04:34:18;;;;;;;13.48;9.50;;;;;;;17.83;75.07;99499.69;4996921;28;20092;-65
2021/07/27 04:37:03;;;;;;;12.70;10.48;;;;;;;17.82;75.07;99511.94;4996744;28;20084;-64
2021/07/27 04:39:53;;;;;;;13.48;9.35;;;;;;;17.81;75.09;99507.59;4996986;28;20052;-65
2021/07/27 04:42:37;;;;;;;14.45;9.80;;;;;;;17.81;75.13;99513.69;4996696;28;20077;-64
2021/07/27 04:45:21;;;;;;;12.85;10.00;;;;;;;17.80;75.16;99506.72;4996993;28;20049;-64
2021/07/27 04:48:05;;;;;;;20.42;10.63;;;;;;;17.81;75.20;99508.44;4981984;28;20049;-65
2021/07/27 04:50:49;;;;;;;;;;;;;;;17.81;75.13;99508.44;4982558;28;20141;-64
2021/07/27 04:53:36;;;;;;;13.48;10.18;;;;;;;17.80;75.14;99509.34;4997245;28;19921;-64
2021/07/27 04:56:19;;;;;;;11.90;9.35;;;;;;;17.83;74.98;99515.41;4996331;28;20049;-64
2021/07/27 04:59:03;;;;;;;23.27;10.05;;;;;;;17.82;75.14;99506.69;4981300;28;20061;-65
2021/07/27 05:01:48;;;;;;;12.38;9.43;;;;;;;17.83;75.04;99512.78;4996019;28;20129;-65
2021/07/27 05:04:36;;;;;;;15.55;10.73;;;;;;;17.81;75.21;99513.69;4996445;28;20048;-65
2021/07/27 05:07:20;;;;;;;15.93;10.07;;;;;;;17.83;75.39;99518.03;4996221;28;20417;-66
2021/07/27 05:10:04;;;;;;;13.23;9.48;;;;;;;17.82;75.13;99517.19;4981260;28;20048;-65
2021/07/27 05:12:48;;;;;;;13.63;9.63;;;;;;;17.82;75.11;99509.31;4995300;28;20045;-66
2021/07/27 05:15:32;;;;;;;15.25;9.77;;;;;;;17.83;75.30;99508.38;4981363;28;20046;-63
2021/07/27 05:18:16;;;;;;;12.65;9.02;;;;;;;17.83;75.42;99513.63;4995377;28;20065;-63
2021/07/27 05:21:00;;;;;;;13.50;9.43;;;;;;;17.83;75.09;99510.16;4995986;28;20105;-66
2021/07/27 05:23:44;;;;;;;14.32;9.82;;;;;;;17.83;75.25;99507.53;4996326;28;20058;-65
2021/07/27 05:26:28;;;;;;;;;;;;;;;17.81;75.02;99505.81;4981402;28;20100;-65
2021/07/27 05:29:12;;;;;;;11.82;10.23;;;;;;;17.81;75.37;99516.28;4981182;28;19921;-65
2021/07/27 05:31:57;;;;;;;10.98;9.75;;;;;;;17.82;75.48;99522.41;4995581;28;20069;-64
2021/07/27 05:34:41;;;;;;;14.95;10.10;;;;;;;17.83;75.39;99507.53;4995663;28;20045;-64
2021/07/27 05:37:25;;;;;;;14.98;10.18;;;;;;;17.82;75.40;99506.69;4980987;28;20076;-65
2021/07/27 05:40:09;;;;;;;14.15;10.68;;;;;;;17.83;75.32;99512.78;4995337;28;20128;-65
2021/07/27 05:42:53;;;;;;;13.05;10.55;;;;;;;17.84;75.39;99504.03;4995824;28;20122;-64
2021/07/27 05:45:37;;;;;;;12.60;10.02;;;;;;;17.83;75.18;99508.38;4995080;28;20057;-64
2021/07/27 05:48:21;;;;;;;13.15;10.10;;;;;;;17.82;75.25;99506.69;4995436;28;20045;-65
2021/07/27 05:51:05;;;;;;;15.27;9.98;;;;;;;17.83;75.29;99507.53;4980640;28;20045;-64
2021/07/27 05:53:49;;;;;;;18.83;10.50;;;;;;;17.84;75.42;99511.88;4995237;28;20049;-64
2021/07/27 05:56:33;;;;;;;12.57;10.18;;;;;;;17.84;75.33;99501.41;4995156;28;20069;-64
2021/07/27 05:59:18;;;;;;;10.90;9.07;;;;;;;17.83;75.48;99497.06;4995225;28;20450;-64
2021/07/27 06:02:02;;;;;;;18.80;10.98;;;;;;;17.83;75.40;99486.56;4995070;28;20057;-64
2021/07/27 06:04:48;;;;;;;12.48;10.10;;;;;;;17.84;75.41;99497.00;4994392;28;20049;-64
2021/07/27 06:07:33;;;;;;;12.60;10.52;;;;;;;17.84;75.46;99491.78;4994446;28;20053;-65
2021/07/27 06:10:17;;;;;;;12.70;10.45;;;;;;;17.85;75.71;99495.28;4979353;28;20056;-65
2021/07/27 06:13:00;;;;;;;13.40;9.80;;;;;;;17.85;75.24;99498.72;4994695;28;20049;-65
2021/07/27 06:15:50;;;;;;;13.27;9.85;;;;;;;17.86;75.46;99497.84;4993683;28;20057;-65
2021/07/27 06:18:34;;;;;;;13.45;9.68;;;;;;;17.85;75.55;99490.88;4979417;28;20101;-64
2021/07/27 06:21:18;;;;;;;12.70;10.43;;;;;;;17.85;75.56;99492.66;4993577;28;20049;-64
2021/07/27 06:24:03;;;;;;;13.60;10.95;;;;;;;17.85;75.36;99493.50;4979430;28;20585;-67
2021/07/27 06:26:47;;;;;;;11.57;10.10;;;;;;;17.86;75.54;99495.22;4993809;28;20056;-65
2021/07/27 06:29:31;;;;;;;14.43;10.48;;;;;;;17.86;75.61;99508.31;4993767;28;20100;-64
2021/07/27 06:32:16;;;;;;;13.73;10.85;;;;;;;17.87;75.52;99506.59;4993827;28;20048;-64
2021/07/27 06:35:00;;;;;;;12.77;10.20;;;;;;;17.87;75.37;99498.72;4979306;28;20097;-65
2021/07/27 06:37:44;;;;;;;13.25;10.48;;;;;;;17.88;75.63;99511.78;4994098;28;20522;-65
2021/07/27 06:40:28;;;;;;;14.75;11.48;;;;;;;17.88;75.44;99517.03;4994108;28;20140;-65
2021/07/27 06:43:14;;;;;;;28.58;10.85;;;;;;;17.89;75.57;99525.75;4979237;28;20099;-65
2021/07/27 06:46:00;;;;;;;14.98;10.88;;;;;;;17.89;76.04;99523.13;4993785;28;20093;-65
2021/07/27 06:48:45;;;;;;;18.02;10.75;;;;;;;17.91;75.67;99521.31;4994036;28;20092;-65
2021/07/27 06:51:29;;;;;;;12.32;10.52;;;;;;;17.91;75.62;99524.81;4979296;28;20129;-64
2021/07/27 06:54:12;;;;;;;16.17;11.20;;;;;;;17.92;75.45;99525.66;4979015;28;20050;-64
2021/07/27 06:56:57;;;;;;;17.58;11.75;;;;;;;17.91;75.67;99532.69;4993903;28;20053;-65
2021/07/27 06:59:41;;;;;;;19.70;12.02;;;;;;;17.92;75.73;99537.03;4993355;28;20406;-64
2021/07/27 07:02:29;;;;;;;13.48;10.73;;;;;;;17.93;75.79;99533.53;4955784;28;1101092;-65
2021/07/27 07:05:16;;;;;;;15.63;12.13;;;;;;;17.93;75.71;99528.28;4994320;28;20509;-64
2021/07/27 07:08:00;;;;;;;17.20;11.70;;;;;;;17.92;75.89;99523.03;4994510;28;20092;-64
2021/07/27 07:10:44;;;;;;;19.35;12.43;;;;;;;17.95;75.84;99522.97;4979870;28;20140;-65
2021/07/27 07:13:29;;;;;;;18.85;12.32;;;;;;;17.94;75.64;99526.50;4979664;28;20136;-65
2021/07/27 07:16:13;;;;;;;14.18;12.35;;;;;;;17.95;75.67;99528.22;4979247;28;20085;-65
2021/07/27 07:18:57;;;;;;;;;;;;;;;17.95;75.68;99521.25;4994350;28;20525;-65
2021/07/27 07:21:41;;;;;;;13.43;11.13;;;;;;;17.96;76.00;99530.84;4994340;28;19921;-64
2021/07/27 07:24:30;;;;;;;16.27;13.50;;;;;;;17.97;75.97;99521.19;4979265;28;20105;-64
2021/07/27 07:27:17;;;;;;;16.83;12.48;;;;;;;17.99;75.82;99522.06;4979480;28;20041;-64
2021/07/27 07:30:05;;;;;;;17.35;12.48;;;;;;;18.01;75.77;99512.41;4979118;28;20426;-64
2021/07/27 07:33:01;;;;;;;16.83;12.45;;;;;;;18.03;76.02;99515.84;4981440;28;20046;-64
2021/07/27 07:35:45;;;;;;;16.30;12.63;;;;;;;18.04;75.83;99509.72;4983116;28;20076;-65
2021/07/27 07:38:29;;;;;;;16.67;13.52;;;;;;;18.06;76.02;99512.28;4983413;28;20492;-66
2021/07/27 07:41:13;;;;;;;15.43;12.70;;;;;;;18.08;75.95;99519.22;4998052;28;20112;-64
2021/07/27 07:44:00;;;;;;;14.35;12.20;;;;;;;18.10;76.20;99524.44;4983192;28;20073;-64
2021/07/27 07:46:47;;;;;;;16.08;12.57;;;;;;;18.11;76.31;99528.78;4982851;28;20105;-67
2021/07/27 07:49:39;;;;;;;16.90;12.93;;;;;;;18.12;76.08;99522.66;4997987;28;20045;-65
2021/07/27 07:52:23;;;;;;;17.83;12.55;;;;;;;18.14;76.07;99533.94;4983013;28;20051;-65
2021/07/27 07:55:11;;;;;;;15.10;12.20;;;;;;;18.16;76.04;99529.53;4997219;28;20046;-64
2021/07/27 07:57:56;;;;;;;17.35;13.25;;;;;;;18.18;76.04;99527.72;4983136;28;20050;-65
2021/07/27 08:00:40;;;;;;;16.23;13.13;;;;;;;18.20;76.14;99523.31;4997137;28;20049;-65
2021/07/27 08:03:24;;;;;;;15.85;13.15;;;;;;;18.20;76.24;99523.31;4982635;28;20065;-65
2021/07/27 08:06:08;;;;;;;16.15;13.00;;;;;;;18.22;76.34;99529.38;4982911;28;20054;-65
2021/07/27 08:08:58;;;;;;;16.23;13.48;;;;;;;18.23;75.97;99535.47;4997228;28;20122;-64
2021/07/27 08:11:44;;;;;;;23.13;14.70;;;;;;;18.26;76.25;99530.16;4982593;28;20110;-64
2021/07/27 08:14:36;;;;;;;19.35;13.45;;;;;;;18.28;76.21;99528.38;4982000;28;20046;-65
2021/07/27 08:17:22;;;;;;;18.05;14.05;;;;;;;18.28;76.32;99525.75;4982931;28;20049;-64
2021/07/27 08:20:15;;;;;;;21.15;15.02;;;;;;;18.29;76.31;99529.25;4997470;28;20508;-65
2021/07/27 08:23:10;;;;;;;18.83;14.18;;;;;;;18.29;76.30;99530.09;4996854;28;20544;-66
2021/07/27 08:25:59;;;;;;;16.88;13.38;;;;;;;18.30;76.28;99538.81;4997390;28;20054;-65
2021/07/27 08:28:45;;;;;;;16.45;13.35;;;;;;;18.30;76.13;99530.94;4997461;28;20105;-65
2021/07/27 08:31:30;;;;;;;15.93;12.88;;;;;;;18.30;76.16;99536.19;4982305;28;20410;-64
2021/07/27 08:34:17;;;;;;;15.38;13.13;;;;;;;18.30;76.08;99542.31;4996997;28;20061;-64
2021/07/27 08:37:01;;;;;;;14.43;12.52;;;;;;;18.32;76.07;99534.41;4981652;28;20438;-66
2021/07/27 08:39:59;;;;;;;18.75;14.13;;;;;;;18.32;76.27;99529.16;4997166;28;20394;-66
2021/07/27 08:42:45;;;;;;;20.10;13.23;;;;;;;18.33;76.44;99526.50;4996681;28;20560;-66
2021/07/27 08:45:32;;;;;;;17.70;13.43;;;;;;;18.35;76.07;99531.72;4981738;28;20113;-65
2021/07/27 08:48:24;;;;;;;16.45;12.95;;;;;;;18.38;76.06;99529.03;4996794;28;20507;-65
2021/07/27 08:51:08;;;;;;;17.23;13.88;;;;;;;18.37;76.20;99530.75;4982275;28;20057;-64
2021/07/27 08:53:56;;;;;;;18.45;13.15;;;;;;;18.38;76.13;99542.13;4996284;28;20049;-65
2021/07/27 08:56:51;;;;;;;16.42;12.55;;;;;;;18.38;76.24;99539.50;4996115;28;20049;-66
2021/07/27 08:59:35;;;;;;;;;;;;;;;18.38;76.19;99542.13;4996731;28;20469;-65
2021/07/27 09:02:30;;;;;;;19.08;13.95;;;;;;;18.37;76.37;99543.88;4996876;28;19976;-65
2021/07/27 09:05:17;;;;;;;13.95;12.50;;;;;;;18.38;76.04;99550.00;4981274;28;20049;-64
2021/07/27 09:08:07;;;;;;;14.52;12.88;;;;;;;18.42;76.20;99546.41;4981518;28;20100;-65
2021/07/27 09:10:52;;;;;;;17.85;12.05;;;;;;;18.44;76.36;99554.25;4996225;28;20045;-66
2021/07/27 09:13:35;;;;;;;;;;;;;;;18.45;76.00;99556.81;4996279;28;20505;-65
2021/07/27 09:16:25;;;;;;;16.52;12.45;;;;;;;18.46;76.29;99549.81;4995737;28;19961;-65
2021/07/27 09:19:12;;;;;;;16.15;12.35;;;;;;;18.45;75.98;99548.94;4981535;28;20580;-66
2021/07/27 09:22:13;;;;;;;13.98;11.80;;;;;;;18.47;76.06;99541.06;4981785;28;20049;-65
2021/07/27 09:25:10;;;;;;;14.38;12.50;;;;;;;18.47;75.72;99541.91;4995790;28;20149;-65
2021/07/27 09:28:10;;;;;;;13.48;11.80;;;;;;;18.47;75.92;99546.31;4981437;28;20177;-65
2021/07/27 09:31:01;;;;;;;13.93;11.73;;;;;;;18.47;75.88;99543.69;4981119;28;20056;-65
2021/07/27 09:33:45;;;;;;;16.45;12.93;;;;;;;18.49;76.08;99552.38;4995996;28;20081;-66
2021/07/27 09:36:34;;;;;;;16.52;12.00;;;;;;;18.47;75.72;99547.16;4995366;28;20068;-65
2021/07/27 09:39:29;;;;;;;12.57;11.18;;;;;;;18.47;75.76;99547.16;4980868;28;20079;-66
2021/07/27 09:42:19;;;;;;;12.82;11.32;;;;;;;18.48;75.77;99564.63;4981370;28;20140;-66
2021/07/27 09:45:04;;;;;;;16.25;11.23;;;;;;;18.47;75.90;99552.38;4995399;28;20045;-66
2021/07/27 09:47:51;;;;;;;17.05;12.00;;;;;;;18.49;75.58;99558.47;4995486;28;20061;-66
2021/07/27 09:50:38;;;;;;;14.75;11.57;;;;;;;18.48;75.70;99554.13;4981016;28;20545;-65
2021/07/27 09:53:30;;;;;;;14.85;11.43;;;;;;;18.50;75.67;99561.97;4995338;28;20049;-66
2021/07/27 09:56:16;;;;;;;18.00;12.50;;;;;;;18.50;75.66;99554.09;4979486;28;20112;-65
2021/07/27 09:59:01;;;;;;;15.98;11.45;;;;;;;18.51;75.77;99555.81;4981151;28;20054;-65
2021/07/27 10:01:53;;;;;;;14.80;11.75;;;;;;;18.51;75.63;99554.06;4995256;28;20410;-65
2021/07/27 10:04:50;;;;;;;16.88;11.95;;;;;;;18.51;75.62;99548.81;4980643;28;20405;-66
2021/07/27 10:07:36;;;;;;;15.07;11.52;;;;;;;18.53;75.61;99552.25;4980567;28;20050;-65
2021/07/27 10:10:43;;;;;;;15.93;12.52;;;;;;;18.54;75.62;99550.47;4995018;28;20105;-64
2021/07/27 10:13:33;;;;;;;14.95;11.57;;;;;;;18.56;75.77;99551.31;4980159;28;20057;-65
2021/07/27 10:16:27;;;;;;;15.23;11.57;;;;;;;18.55;75.73;99555.72;4994451;28;20049;-64
2021/07/27 10:19:16;;;;;;;14.70;11.35;;;;;;;18.55;75.68;99562.69;4980615;28;20057;-65
2021/07/27 10:22:03;;;;;;;14.43;12.02;;;;;;;18.56;75.52;99570.56;4980486;28;20052;-66
2021/07/27 10:24:50;;;;;;;13.38;11.55;;;;;;;18.56;75.49;99573.19;4980615;28;20085;-64
2021/07/27 10:27:37;;;;;;;20.52;14.05;;;;;;;18.57;75.42;99574.03;4994824;28;20093;-65
2021/07/27 10:30:36;;;;;;;14.18;12.60;;;;;;;18.59;75.50;99568.75;4980255;28;20184;-65
2021/07/27 10:33:29;;;;;;;14.00;11.02;;;;;;;18.61;75.70;99566.97;4979869;28;20077;-66
2021/07/27 10:36:24;;;;;;;13.88;11.23;;;;;;;18.62;75.51;99564.28;4994537;28;20406;-65
2021/07/27 10:39:15;;;;;;;14.25;11.45;;;;;;;18.62;75.54;99566.03;4994679;28;20100;-65
2021/07/27 10:42:10;;;;;;;16.92;12.32;;;;;;;18.64;75.66;99562.50;4980006;28;20085;-65
2021/07/27 10:44:54;;;;;;;16.75;12.80;;;;;;;18.65;75.68;99568.59;4980087;28;20609;-65
2021/07/27 10:47:39;;;;;;;15.48;11.90;;;;;;;18.66;75.45;99573.81;4994573;28;20061;-65
2021/07/27 10:50:27;;;;;;;20.92;12.43;;;;;;;18.67;75.41;99567.66;4994598;28;20103;-65
2021/07/27 10:53:23;;;;;;;14.40;12.48;;;;;;;18.69;75.36;99559.75;4994261;28;20149;-65
2021/07/27 10:56:10;;;;;;;16.25;12.15;;;;;;;18.69;75.23;99563.22;4994171;28;20041;-66
2021/07/27 10:59:01;;;;;;;15.93;12.05;;;;;;;18.69;75.45;99557.13;4979261;28;20105;-65
2021/07/27 11:01:48;;;;;;;17.90;12.25;;;;;;;18.71;75.42;99564.03;4994000;28;20055;-65
2021/07/27 11:04:34;;;;;;;13.40;10.85;;;;;;;18.72;75.47;99562.31;4994142;28;20065;-64
2021/07/27 11:07:31;;;;;;;16.55;11.73;;;;;;;18.72;75.39;99565.78;4994441;28;20045;-65
2021/07/27 11:10:20;;;;;;;15.13;11.80;;;;;;;18.73;75.28;99545.66;4979543;28;20560;-64
2021/07/27 11:13:08;;;;;;;14.30;11.40;;;;;;;18.74;75.26;99554.38;4979448;28;20104;-65
2021/07/27 11:16:00;;;;;;;14.32;11.25;;;;;;;18.74;75.40;99555.25;4994028;28;20049;-65
2021/07/27 11:18:50;;;;;;;16.23;12.35;;;;;;;18.75;75.24;99543.84;4993646;28;20568;-66
2021/07/27 11:21:37;;;;;;;14.25;10.38;;;;;;;18.75;75.24;99533.34;4979205;28;20584;-65
2021/07/27 11:24:28;;;;;;;14.88;11.45;;;;;;;18.77;75.36;99533.31;4993601;28;20061;-65
2021/07/27 11:27:16;;;;;;;13.57;11.15;;;;;;;18.78;75.24;99529.78;4994096;28;20457;-66
2021/07/27 11:30:09;;;;;;;13.95;11.43;;;;;;;18.80;75.04;99536.69;4993688;28;20053;-65
2021/07/27 11:33:05;;;;;;;12.75;11.00;;;;;;;18.81;75.09;99527.94;4979764;28;20158;-65
2021/07/27 11:35:59;;;;;;;13.05;10.45;;;;;;;18.82;75.02;99529.66;4979074;28;20524;-65
2021/07/27 11:38:43;;;;;;;15.18;11.10;;;;;;;18.83;75.17;99533.16;4979547;28;20049;-65
2021/07/27 11:41:32;;;;;;;12.82;10.38;;;;;;;18.82;75.05;99529.66;4994013;28;20053;-66
2021/07/27 11:44:25;;;;;;;12.85;10.93;;;;;;;18.80;75.29;99531.44;4978504;28;20050;-65
2021/07/27 11:47:14;;;;;;;12.38;10.88;;;;;;;18.81;74.91;99537.56;4978680;28;20050;-65
2021/07/27 11:50:07;;;;;;;12.75;10.07;;;;;;;18.81;75.05;99522.69;4993734;28;20042;-66
2021/07/27 11:53:04;;;;;;;13.73;10.98;;;;;;;18.81;74.98;99532.34;4978982;28;20100;-65
2021/07/27 11:55:53;;;;;;;13.73;10.80;;;;;;;18.81;74.87;99521.84;4979060;28;20053;-65
2021/07/27 11:58:41;;;;;;;14.70;10.85;;;;;;;18.82;74.91;99515.69;4979354;28;20053;-64
2021/07/27 12:01:39;;;;;;;15.35;11.20;;;;;;;18.82;75.03;99526.19;4993658;28;20049;-65
2021/07/27 12:04:26;;;;;;;15.50;11.85;;;;;;;18.83;75.07;99514.78;4993831;28;20100;-65
2021/07/27 12:07:16;;;;;;;13.18;10.93;;;;;;;18.83;74.98;99514.78;4978099;28;20422;-64
2021/07/27 12:10:10;;;;;;;17.83;10.48;;;;;;;18.84;75.03;99503.38;4978896;28;20049;-66
2021/07/27 12:12:59;;;;;;;13.82;10.45;;;;;;;18.84;74.73;99493.72;4979161;28;20105;-65
2021/07/27 12:15:51;;;;;;;12.57;9.93;;;;;;;18.85;74.65;99498.06;4978757;28;20049;-66
2021/07/27 12:18:44;;;;;;;15.10;10.95;;;;;;;18.85;74.84;99498.06;4980515;28;20065;-66
2021/07/27 12:21:28;;;;;;;15.15;10.63;;;;;;;18.87;74.89;99498.03;4997695;28;20057;-66
2021/07/27 12:24:14;;;;;;;13.85;9.57;;;;;;;18.87;74.69;99501.53;4982792;28;20057;-63
2021/07/27 12:27:07;;;;;;;10.88;9.55;;;;;;;18.89;74.63;99492.75;4982492;28;20053;-65
2021/07/27 12:29:51;;;;;;;16.60;10.68;;;;;;;18.87;74.78;99491.03;4982343;28;20101;-66
2021/07/27 12:32:37;;;;;;;17.48;10.20;;;;;;;18.87;74.71;99480.53;4982144;28;20096;-64
2021/07/27 12:35:27;;;;;;;11.95;9.77;;;;;;;18.89;74.67;99483.09;4996544;28;20044;-65
2021/07/27 12:38:11;;;;;;;12.75;10.63;;;;;;;18.90;74.63;99486.59;4982405;28;20132;-65
2021/07/27 12:41:03;;;;;;;13.98;10.60;;;;;;;18.91;74.60;99480.44;4996911;28;20461;-65
2021/07/27 12:43:50;;;;;;;13.80;10.48;;;;;;;18.93;74.54;99481.25;4981804;28;20477;-64
2021/07/27 12:46:34;;;;;;;14.10;9.75;;;;;;;18.94;74.84;99481.25;4982081;28;20104;-66
2021/07/27 12:49:29;;;;;;;13.73;10.98;;;;;;;18.97;74.62;99477.66;4982248;28;20461;-66
2021/07/27 12:52:19;;;;;;;16.30;10.93;;;;;;;18.96;74.57;99468.06;4981638;28;20100;-66
2021/07/27 12:55:11;;;;;;;13.95;11.25;;;;;;;18.96;74.41;99463.69;4996560;28;20133;-66
2021/07/27 12:58:04;;;;;;;13.38;10.43;;;;;;;18.98;74.41;99471.50;4981655;28;20050;-65
2021/07/27 13:00:53;;;;;;;13.75;10.85;;;;;;;18.99;74.59;99474.13;4981504;28;20077;-64
2021/07/27 13:03:42;;;;;;;12.25;9.90;;;;;;;18.99;74.56;99463.63;4970051;28;20062;-66
2021/07/27 13:06:27;;;;;;;19.13;10.82;;;;;;;19.01;74.57;99472.28;4956910;29;20053;-66
2021/07/27 13:09:11;;;;;;;15.10;11.02;;;;;;;19.00;74.56;99481.06;4956551;29;20049;-66
2021/07/27 13:12:00;;;;;;;12.32;9.70;;;;;;;19.00;74.54;99482.84;4956388;29;20050;-65
2021/07/27 13:14:50;;;;;;;13.55;10.60;;;;;;;18.99;74.66;99482.00;4956018;29;20186;-64